createdAt,value
2022-12-31T00:01:35.114Z,21.90
2022-12-31T00:04:02.841Z,21.80
2022-12-31T00:06:34.184Z,21.80
2022-12-31T00:09:04.886Z,21.80
2022-12-31T00:11:32.889Z,21.80
2022-12-31T00:14:01.030Z,21.80
2022-12-31T00:16:31.293Z,21.80
2022-12-31T00:19:00.889Z,21.80
2022-12-31T00:21:31.393Z,21.80
2022-12-31T00:23:59.309Z,21.80
2022-12-31T00:26:29.157Z,21.80
2022-12-31T00:28:58.471Z,21.80
2022-12-31T00:31:28.287Z,21.80
2022-12-31T00:33:56.987Z,21.90
2022-12-31T00:36:27.276Z,21.90
2022-12-31T00:38:58.355Z,21.80
2022-12-31T00:41:26.915Z,21.80
2022-12-31T00:43:55.149Z,21.80
2022-12-31T00:46:23.410Z,21.80
2022-12-31T00:48:51.200Z,21.80
2022-12-31T00:51:21.797Z,21.80
2022-12-31T00:53:49.833Z,21.80
2022-12-31T00:56:21.168Z,21.80
2022-12-31T00:58:49.383Z,21.80
2022-12-31T01:01:18.971Z,21.80
2022-12-31T01:03:48.099Z,21.80
2022-12-31T01:06:16.711Z,21.80
2022-12-31T01:08:44.596Z,21.80
2022-12-31T01:11:22.994Z,21.80
2022-12-31T01:13:54.326Z,21.90
2022-12-31T01:16:24.501Z,21.80
2022-12-31T01:18:53.028Z,21.80
2022-12-31T01:21:21.911Z,21.80
2022-12-31T01:23:49.608Z,21.80
2022-12-31T01:26:18.976Z,21.80
2022-12-31T01:28:47.830Z,21.80
2022-12-31T01:31:19.140Z,21.80
2022-12-31T01:33:47.528Z,21.90
2022-12-31T01:36:21.895Z,21.90
2022-12-31T01:38:51.638Z,21.90
2022-12-31T01:41:22.416Z,21.80
2022-12-31T01:43:54.111Z,21.90
2022-12-31T01:46:37.527Z,21.90
2022-12-31T01:49:11.544Z,21.90
2022-12-31T01:51:42.649Z,21.80
2022-12-31T01:54:13.967Z,21.80
2022-12-31T01:56:45.363Z,21.90
2022-12-31T01:59:15.263Z,21.90
2022-12-31T02:01:46.586Z,21.90
2022-12-31T02:04:15.478Z,21.90
2022-12-31T02:06:46.983Z,21.90
2022-12-31T02:09:14.724Z,21.90
2022-12-31T02:11:42.488Z,21.90
2022-12-31T02:14:14.558Z,21.90
2022-12-31T02:16:50.475Z,21.90
2022-12-31T02:19:42.877Z,21.80
2022-12-31T02:22:22.668Z,21.90
2022-12-31T02:25:29.445Z,21.90
2022-12-31T02:28:08.796Z,21.90
2022-12-31T02:30:40.232Z,21.90
2022-12-31T02:33:14.675Z,21.90
2022-12-31T02:35:48.385Z,21.90
2022-12-31T02:38:20.594Z,21.80
2022-12-31T02:40:48.737Z,21.90
2022-12-31T02:43:16.515Z,21.90
2022-12-31T02:45:51.119Z,21.80
2022-12-31T02:48:36.253Z,21.90
2022-12-31T02:51:16.543Z,21.90
2022-12-31T02:54:07.333Z,21.90
2022-12-31T02:56:41.448Z,21.90
2022-12-31T02:59:33.455Z,21.90
2022-12-31T03:02:16.922Z,21.80
2022-12-31T03:04:48.350Z,21.90
2022-12-31T03:07:21.003Z,21.90
2022-12-31T03:09:49.209Z,21.90
2022-12-31T03:12:35.567Z,21.90
2022-12-31T03:15:06.467Z,21.90
2022-12-31T03:17:35.757Z,21.90
2022-12-31T03:20:21.174Z,21.90
2022-12-31T03:22:49.105Z,21.90
2022-12-31T03:25:33.870Z,21.90
2022-12-31T03:28:02.972Z,21.90
2022-12-31T03:30:31.813Z,21.80
2022-12-31T03:33:01.313Z,21.80
2022-12-31T03:35:30.536Z,21.90
2022-12-31T03:37:58.416Z,21.90
2022-12-31T03:40:27.686Z,21.90
2022-12-31T03:42:55.716Z,21.90
2022-12-31T03:45:25.036Z,21.90
2022-12-31T03:47:52.960Z,21.80
2022-12-31T03:50:22.136Z,21.80
2022-12-31T03:52:49.903Z,21.90
2022-12-31T03:55:17.714Z,21.90
2022-12-31T03:57:46.424Z,21.90
2022-12-31T04:00:17.568Z,21.90
2022-12-31T04:02:45.525Z,21.90
2022-12-31T04:05:13.484Z,21.80
2022-12-31T04:07:43.052Z,21.90
2022-12-31T04:10:13.686Z,21.80
2022-12-31T04:12:41.799Z,21.90
2022-12-31T04:15:11.499Z,21.80
2022-12-31T04:17:39.201Z,21.90
2022-12-31T04:20:08.071Z,21.90
2022-12-31T04:22:35.777Z,21.90
2022-12-31T04:25:05.642Z,21.90
2022-12-31T04:27:33.347Z,21.90
2022-12-31T04:30:01.081Z,21.80
2022-12-31T04:32:28.776Z,21.90
2022-12-31T04:34:56.492Z,21.80
2022-12-31T04:37:24.171Z,21.90
2022-12-31T04:39:51.876Z,21.90
2022-12-31T04:42:20.923Z,21.90
2022-12-31T04:44:48.819Z,21.90
2022-12-31T04:47:21.839Z,21.90
2022-12-31T04:49:51.438Z,21.80
2022-12-31T04:52:19.214Z,21.90
2022-12-31T04:54:46.948Z,21.90
2022-12-31T04:57:14.678Z,21.90
2022-12-31T04:59:43.824Z,21.90
2022-12-31T05:02:11.752Z,21.80
2022-12-31T05:04:39.551Z,21.90
2022-12-31T05:07:07.330Z,21.80
2022-12-31T05:09:35.015Z,21.90
2022-12-31T05:12:02.748Z,21.90
2022-12-31T05:14:30.465Z,21.90
2022-12-31T05:17:00.919Z,21.90
2022-12-31T05:19:28.673Z,21.90
2022-12-31T05:22:10.364Z,21.80
2022-12-31T05:24:38.187Z,21.90
2022-12-31T05:27:05.941Z,21.90
2022-12-31T05:29:33.712Z,21.90
2022-12-31T05:32:02.765Z,21.90
2022-12-31T05:34:30.452Z,21.90
2022-12-31T05:36:58.134Z,21.80
2022-12-31T05:39:25.884Z,21.90
2022-12-31T05:41:53.560Z,21.90
2022-12-31T05:44:21.247Z,21.90
2022-12-31T05:46:48.938Z,21.90
2022-12-31T05:49:18.601Z,21.90
2022-12-31T05:51:46.285Z,21.90
2022-12-31T05:54:14.009Z,21.90
2022-12-31T05:56:41.710Z,21.80
2022-12-31T05:59:09.422Z,21.90
2022-12-31T06:01:37.132Z,21.90
2022-12-31T06:04:05.886Z,21.90
2022-12-31T06:06:35.039Z,21.80
2022-12-31T06:09:02.995Z,21.90
2022-12-31T06:11:31.162Z,21.90
2022-12-31T06:13:59.125Z,21.90
2022-12-31T06:16:27.177Z,21.90
2022-12-31T06:18:54.993Z,21.90
2022-12-31T06:21:23.104Z,21.90
2022-12-31T06:23:52.102Z,21.90
2022-12-31T06:26:19.846Z,21.90
2022-12-31T06:28:47.919Z,21.90
2022-12-31T06:31:16.180Z,21.90
2022-12-31T06:33:44.112Z,21.90
2022-12-31T06:36:15.497Z,21.90
2022-12-31T06:38:44.886Z,21.90
2022-12-31T06:41:16.029Z,21.90
2022-12-31T06:43:44.540Z,21.90
2022-12-31T06:46:14.684Z,21.80
2022-12-31T06:48:44.564Z,21.90
2022-12-31T06:51:17.334Z,21.90
2022-12-31T06:53:45.998Z,21.90
2022-12-31T06:56:19.304Z,21.90
2022-12-31T06:58:47.827Z,21.80
2022-12-31T07:01:31.769Z,21.90
2022-12-31T07:04:09.830Z,21.80
2022-12-31T07:06:44.791Z,21.90
2022-12-31T07:09:23.253Z,21.90
2022-12-31T07:12:01.101Z,21.90
2022-12-31T07:14:36.902Z,21.90
2022-12-31T07:17:27.123Z,21.90
2022-12-31T07:20:01.738Z,21.90
2022-12-31T07:22:30.076Z,21.90
2022-12-31T07:24:58.258Z,21.90
2022-12-31T07:27:44.128Z,21.90
2022-12-31T07:30:14.288Z,21.90
2022-12-31T07:33:26.566Z,21.90
2022-12-31T07:36:04.636Z,21.90
2022-12-31T07:38:38.676Z,21.90
2022-12-31T07:41:15.145Z,21.90
2022-12-31T07:43:54.289Z,21.90
2022-12-31T07:46:31.687Z,21.90
2022-12-31T07:49:00.077Z,21.80
2022-12-31T07:51:28.638Z,21.80
2022-12-31T07:53:56.364Z,21.90
2022-12-31T07:56:24.142Z,21.90
2022-12-31T07:59:05.626Z,21.90
2022-12-31T08:01:40.845Z,21.90
2022-12-31T08:04:16.306Z,21.90
2022-12-31T08:06:51.917Z,21.90
2022-12-31T08:09:31.590Z,21.90
2022-12-31T08:12:01.540Z,21.90
2022-12-31T08:14:31.525Z,21.90
2022-12-31T08:16:59.890Z,21.90
2022-12-31T08:19:30.492Z,21.90
2022-12-31T08:22:11.379Z,22.00
2022-12-31T08:24:50.213Z,22.00
2022-12-31T08:27:24.783Z,22.00
2022-12-31T08:30:04.211Z,22.00
2022-12-31T08:32:39.285Z,22.00
2022-12-31T08:35:19.293Z,22.00
2022-12-31T08:37:52.085Z,22.00
2022-12-31T08:40:25.129Z,22.00
2022-12-31T08:43:08.980Z,22.00
2022-12-31T08:45:40.562Z,22.00
2022-12-31T08:48:20.907Z,22.00
2022-12-31T08:50:49.267Z,22.00
2022-12-31T08:53:17.448Z,22.00
2022-12-31T08:55:47.599Z,22.00
2022-12-31T08:58:28.007Z,22.00
2022-12-31T09:00:59.739Z,22.00
2022-12-31T09:03:47.698Z,22.00
2022-12-31T09:06:23.155Z,22.00
2022-12-31T09:08:58.519Z,22.00
2022-12-31T09:11:33.886Z,22.00
2022-12-31T09:14:18.407Z,22.00
2022-12-31T09:16:55.740Z,22.00
2022-12-31T09:19:23.474Z,22.00
2022-12-31T09:21:51.634Z,22.00
2022-12-31T09:24:19.696Z,22.00
2022-12-31T09:26:58.282Z,22.00
2022-12-31T09:29:42.383Z,22.00
2022-12-31T09:32:21.201Z,22.00
2022-12-31T09:34:57.373Z,22.10
2022-12-31T09:37:37.244Z,22.10
2022-12-31T09:40:33.821Z,22.10
2022-12-31T09:43:40.369Z,22.00
2022-12-31T09:46:31.895Z,22.00
2022-12-31T09:49:40.810Z,22.10
2022-12-31T09:52:17.397Z,22.00
2022-12-31T09:54:54.292Z,22.10
2022-12-31T09:57:41.192Z,22.10
2022-12-31T10:00:14.221Z,22.10
2022-12-31T10:02:58.458Z,22.10
2022-12-31T10:05:43.276Z,22.10
2022-12-31T10:08:24.293Z,22.10
2022-12-31T10:10:55.601Z,22.10
2022-12-31T10:13:34.103Z,22.10
2022-12-31T10:16:15.711Z,22.10
2022-12-31T10:19:14.331Z,22.10
2022-12-31T10:21:54.958Z,22.10
2022-12-31T10:24:48.858Z,22.10
2022-12-31T10:27:28.459Z,22.10
2022-12-31T10:30:03.339Z,22.10
2022-12-31T10:32:41.722Z,22.10
2022-12-31T10:35:30.154Z,22.10
2022-12-31T10:38:10.587Z,22.10
2022-12-31T10:41:11.018Z,22.10
2022-12-31T10:44:06.850Z,22.10
2022-12-31T10:47:12.899Z,22.20
2022-12-31T10:50:15.010Z,22.20
2022-12-31T10:53:20.952Z,22.20
2022-12-31T10:56:15.860Z,22.20
2022-12-31T10:59:16.382Z,22.20
2022-12-31T11:01:55.035Z,22.20
2022-12-31T11:04:54.935Z,22.20
2022-12-31T11:07:42.057Z,22.20
2022-12-31T11:10:52.798Z,22.20
2022-12-31T11:14:08.581Z,22.30
2022-12-31T11:17:05.773Z,22.30
2022-12-31T11:19:39.859Z,22.30
2022-12-31T11:22:25.113Z,22.30
2022-12-31T11:25:06.540Z,22.20
2022-12-31T11:27:49.510Z,22.20
2022-12-31T11:30:23.816Z,22.20
2022-12-31T11:33:05.920Z,22.20
2022-12-31T11:35:44.899Z,22.20
2022-12-31T11:38:23.552Z,22.20
2022-12-31T11:41:00.803Z,22.20
2022-12-31T11:43:38.248Z,22.20
2022-12-31T11:46:34.953Z,22.30
2022-12-31T11:49:21.469Z,22.30
2022-12-31T11:52:06.801Z,22.30
2022-12-31T11:54:54.104Z,22.30
2022-12-31T11:57:27.109Z,22.30
2022-12-31T11:59:59.592Z,22.30
2022-12-31T12:02:30.542Z,22.30
2022-12-31T12:05:06.581Z,22.30
2022-12-31T12:07:38.230Z,22.30
2022-12-31T12:10:19.549Z,22.30
2022-12-31T12:12:48.549Z,22.30
2022-12-31T12:15:23.022Z,22.30
2022-12-31T12:17:53.601Z,22.30
2022-12-31T12:20:27.491Z,22.30
2022-12-31T12:22:57.678Z,22.30
2022-12-31T12:25:28.217Z,22.30
2022-12-31T12:27:56.074Z,22.30
2022-12-31T12:30:27.638Z,22.40
2022-12-31T12:32:57.896Z,22.40
2022-12-31T12:35:28.076Z,22.40
2022-12-31T12:38:04.239Z,22.40
2022-12-31T12:40:34.282Z,22.50
2022-12-31T12:43:04.109Z,22.50
2022-12-31T12:45:47.758Z,22.50
2022-12-31T12:48:26.479Z,22.50
2022-12-31T12:50:54.248Z,22.60
2022-12-31T12:53:38.292Z,22.60
2022-12-31T12:56:18.678Z,22.60
2022-12-31T12:58:57.368Z,22.60
2022-12-31T13:01:36.696Z,22.60
2022-12-31T13:04:35.361Z,22.60
2022-12-31T13:07:23.315Z,22.60
2022-12-31T13:10:22.474Z,22.50
2022-12-31T13:15:55.497Z,22.40
2022-12-31T13:18:39.417Z,22.30
2022-12-31T13:21:29.376Z,22.30
2022-12-31T13:24:01.377Z,22.20
2022-12-31T13:26:36.664Z,22.20
2022-12-31T13:29:06.899Z,22.20
2022-12-31T13:31:38.438Z,22.10
2022-12-31T13:34:14.029Z,22.10
2022-12-31T13:36:44.716Z,22.10
2022-12-31T13:39:18.497Z,22.10
2022-12-31T13:41:50.381Z,22.10
2022-12-31T13:44:28.170Z,22.10
2022-12-31T13:47:01.492Z,22.10
2022-12-31T13:49:37.703Z,22.10
2022-12-31T13:52:22.548Z,22.10
2022-12-31T13:54:56.803Z,22.10
2022-12-31T13:57:37.400Z,22.10
2022-12-31T14:00:07.830Z,22.10
2022-12-31T14:02:45.200Z,22.20
2022-12-31T14:05:19.676Z,22.20
2022-12-31T14:07:51.492Z,22.20
2022-12-31T14:10:26.892Z,22.20
2022-12-31T14:13:00.856Z,22.20
2022-12-31T14:15:35.768Z,22.20
2022-12-31T14:18:10.815Z,22.20
2022-12-31T14:20:48.102Z,22.20
2022-12-31T14:23:26.381Z,22.20
2022-12-31T14:25:58.075Z,22.20
2022-12-31T14:28:30.125Z,22.20
2022-12-31T14:31:05.996Z,22.20
2022-12-31T14:33:45.088Z,22.20
2022-12-31T14:36:36.777Z,22.20
2022-12-31T14:39:20.709Z,22.20
2022-12-31T14:41:58.836Z,22.20
2022-12-31T14:44:39.051Z,22.20
2022-12-31T14:47:21.762Z,22.20
2022-12-31T14:50:04.585Z,22.20
2022-12-31T14:52:35.650Z,22.20
2022-12-31T14:55:21.797Z,22.20
2022-12-31T15:00:40.297Z,22.20
2022-12-31T15:03:24.870Z,22.20
2022-12-31T15:05:55.063Z,22.20
2022-12-31T15:08:41.755Z,22.20
2022-12-31T15:11:38.063Z,22.20
2022-12-31T15:14:43.315Z,22.20
2022-12-31T15:17:24.572Z,22.20
2022-12-31T15:20:30.955Z,22.20
2022-12-31T15:22:58.885Z,22.20
2022-12-31T15:25:35.212Z,22.20
2022-12-31T15:28:08.599Z,22.20
2022-12-31T15:30:43.010Z,22.20
2022-12-31T15:33:20.202Z,22.20
2022-12-31T15:35:51.111Z,22.20
2022-12-31T15:38:35.450Z,22.10
2022-12-31T15:41:17.267Z,22.10
2022-12-31T15:43:49.154Z,22.10
2022-12-31T15:46:19.909Z,22.20
2022-12-31T15:48:52.882Z,22.20
2022-12-31T15:51:26.516Z,22.20
2022-12-31T15:53:57.337Z,22.20
2022-12-31T15:56:33.746Z,22.10
2022-12-31T15:59:06.349Z,22.20
2022-12-31T16:01:37.840Z,22.10
2022-12-31T16:04:08.723Z,22.10
2022-12-31T16:06:38.570Z,22.20
2022-12-31T16:09:09.751Z,22.10
2022-12-31T16:11:41.546Z,22.10
2022-12-31T16:14:16.274Z,22.10
2022-12-31T16:16:53.887Z,22.10
2022-12-31T16:19:29.381Z,22.10
2022-12-31T16:21:58.594Z,22.10
2022-12-31T16:24:29.993Z,22.10
2022-12-31T16:27:02.467Z,22.10
2022-12-31T16:29:31.353Z,22.10
2022-12-31T16:31:59.151Z,22.20
2022-12-31T16:34:28.323Z,22.20
2022-12-31T16:37:01.648Z,22.20
2022-12-31T16:39:32.322Z,22.10
2022-12-31T16:42:19.766Z,22.20
2022-12-31T16:44:48.480Z,22.20
2022-12-31T16:47:21.192Z,22.20
2022-12-31T16:49:51.640Z,22.20
2022-12-31T16:52:27.889Z,22.20
2022-12-31T16:54:56.310Z,22.20
2022-12-31T16:57:29.511Z,22.20
2022-12-31T17:00:00.005Z,22.20
2022-12-31T17:02:31.437Z,22.20
2022-12-31T17:04:59.331Z,22.20
2022-12-31T17:07:37.292Z,22.20
2022-12-31T17:10:16.016Z,22.30
2022-12-31T17:15:42.031Z,22.30
2022-12-31T17:18:18.054Z,22.40
2022-12-31T17:20:45.794Z,22.40
2022-12-31T17:23:22.502Z,22.40
2022-12-31T17:25:50.312Z,22.40
2022-12-31T17:28:24.027Z,22.50
2022-12-31T17:30:52.262Z,22.60
2022-12-31T17:33:32.575Z,22.70
2022-12-31T17:36:22.759Z,22.80
2022-12-31T17:38:51.108Z,22.80
2022-12-31T17:41:25.993Z,22.80
2022-12-31T17:43:57.509Z,22.80
2022-12-31T17:46:26.492Z,22.70
2022-12-31T17:48:59.966Z,22.70
2022-12-31T17:51:27.808Z,22.70
2022-12-31T17:53:55.501Z,22.70
2022-12-31T17:56:23.352Z,22.70
2022-12-31T17:58:53.407Z,22.60
2022-12-31T18:01:24.471Z,22.60
2022-12-31T18:03:52.266Z,22.60
2022-12-31T18:06:20.150Z,22.60
2022-12-31T18:08:48.334Z,22.60
2022-12-31T18:11:18.915Z,22.50
2022-12-31T18:13:46.867Z,22.50
2022-12-31T18:16:14.829Z,22.50
2022-12-31T18:18:45.140Z,22.50
2022-12-31T18:21:18.826Z,22.50
2022-12-31T18:23:48.707Z,22.50
2022-12-31T18:26:18.010Z,22.50
2022-12-31T18:28:46.213Z,22.40
2022-12-31T18:31:15.573Z,22.50
2022-12-31T18:33:44.871Z,22.40
2022-12-31T18:36:13.990Z,22.40
2022-12-31T18:38:41.990Z,22.40
2022-12-31T18:41:17.215Z,22.40
2022-12-31T18:43:44.965Z,22.40
2022-12-31T18:46:14.469Z,22.40
2022-12-31T18:48:44.150Z,22.40
2022-12-31T18:51:14.947Z,22.40
2022-12-31T18:53:42.675Z,22.40
2022-12-31T18:56:13.081Z,22.40
2022-12-31T18:58:40.813Z,22.40
2022-12-31T19:01:27.367Z,22.40
2022-12-31T19:03:57.694Z,22.40
2022-12-31T19:06:25.599Z,22.30
2022-12-31T19:08:53.554Z,22.30
2022-12-31T19:11:22.220Z,22.30
2022-12-31T19:13:50.497Z,22.30
2022-12-31T19:16:18.369Z,22.30
2022-12-31T19:18:47.207Z,22.30
2022-12-31T19:21:21.004Z,22.30
2022-12-31T19:23:49.663Z,22.30
2022-12-31T19:26:19.568Z,22.30
2022-12-31T19:28:48.644Z,22.30
2022-12-31T19:31:16.564Z,22.30
2022-12-31T19:33:44.940Z,22.30
2022-12-31T19:36:16.066Z,22.30
2022-12-31T19:38:45.734Z,22.30
2022-12-31T19:41:17.849Z,22.30
2022-12-31T19:43:45.837Z,22.30
2022-12-31T19:46:14.968Z,22.30
2022-12-31T19:48:42.997Z,22.30
2022-12-31T19:51:12.524Z,22.30
2022-12-31T19:53:40.303Z,22.30
2022-12-31T19:56:13.236Z,22.30
2022-12-31T19:58:40.951Z,22.30
2022-12-31T20:01:10.934Z,22.30
2022-12-31T20:03:38.719Z,22.30
2022-12-31T20:06:09.017Z,22.30
2022-12-31T20:08:38.328Z,22.30
2022-12-31T20:11:11.507Z,22.30
2022-12-31T20:13:40.150Z,22.30
2022-12-31T20:16:09.199Z,22.30
2022-12-31T20:18:37.953Z,22.30
2022-12-31T20:21:09.383Z,22.20
2022-12-31T20:23:37.111Z,22.20
2022-12-31T20:26:05.079Z,22.30
2022-12-31T20:28:34.116Z,22.20
2022-12-31T20:31:06.331Z,22.20
2022-12-31T20:33:34.657Z,22.20
2022-12-31T20:36:02.720Z,22.20
2022-12-31T20:38:30.435Z,22.20
2022-12-31T20:41:04.283Z,22.30
2022-12-31T20:43:34.035Z,22.30
2022-12-31T20:46:12.436Z,22.30
2022-12-31T20:48:42.755Z,22.30
2022-12-31T20:51:10.531Z,22.30
2022-12-31T20:53:38.279Z,22.30
2022-12-31T20:56:06.614Z,22.30
2022-12-31T20:58:36.272Z,22.20
2022-12-31T21:01:07.799Z,22.20
2022-12-31T21:04:04.346Z,22.20
2022-12-31T21:06:24.207Z,22.20
2022-12-31T21:08:52.031Z,22.20
2022-12-31T21:11:37.339Z,22.20
2022-12-31T21:14:06.492Z,22.20
2022-12-31T21:16:34.284Z,22.20
2022-12-31T21:19:02.247Z,22.20
2022-12-31T21:21:29.984Z,22.20
2022-12-31T21:23:57.757Z,22.20
2022-12-31T21:26:26.178Z,22.20
2022-12-31T21:28:54.268Z,22.20
2022-12-31T21:31:23.357Z,22.20
2022-12-31T21:33:51.121Z,22.20
2022-12-31T21:36:18.977Z,22.20
2022-12-31T21:38:46.755Z,22.20
2022-12-31T21:41:35.323Z,22.30
2022-12-31T21:44:03.692Z,22.20
2022-12-31T21:46:32.769Z,22.30
2022-12-31T21:49:01.368Z,22.20
2022-12-31T21:51:29.553Z,22.30
2022-12-31T21:53:57.688Z,22.30
2022-12-31T21:56:24.894Z,22.20
2022-12-31T21:59:09.510Z,22.20
2022-12-31T22:01:56.151Z,22.30
2022-12-31T22:05:00.388Z,22.20
2022-12-31T22:07:11.680Z,22.20
2022-12-31T22:09:39.388Z,22.20
2022-12-31T22:12:07.534Z,22.20
2022-12-31T22:14:35.245Z,22.20
2022-12-31T22:17:04.315Z,22.20
2022-12-31T22:19:43.492Z,22.20
2022-12-31T22:22:19.794Z,22.20
2022-12-31T22:24:47.657Z,22.20
2022-12-31T22:27:28.178Z,22.20
2022-12-31T22:29:57.358Z,22.20
2022-12-31T22:32:26.377Z,22.20
2022-12-31T22:34:54.085Z,22.20
2022-12-31T22:37:55.177Z,22.20
2022-12-31T22:40:10.723Z,22.20
2022-12-31T22:42:38.468Z,22.20
2022-12-31T22:45:07.917Z,22.20
2022-12-31T22:47:36.945Z,22.20
2022-12-31T22:50:05.185Z,22.20
2022-12-31T22:52:32.912Z,22.20
2022-12-31T22:55:00.628Z,22.20
2022-12-31T22:57:28.353Z,22.20
2022-12-31T22:59:56.110Z,22.20
2022-12-31T23:02:23.851Z,22.20
2022-12-31T23:04:52.919Z,22.20
2022-12-31T23:07:40.624Z,22.10
2022-12-31T23:10:27.675Z,22.20
2022-12-31T23:12:55.424Z,22.10
2022-12-31T23:15:40.633Z,22.10
2022-12-31T23:18:26.083Z,22.10
2022-12-31T23:21:12.807Z,22.00
2022-12-31T23:23:40.557Z,22.00
2022-12-31T23:26:08.264Z,22.00
2022-12-31T23:28:35.969Z,21.90
2022-12-31T23:31:07.070Z,21.90
2022-12-31T23:33:34.813Z,21.90
2022-12-31T23:36:05.192Z,21.90
2022-12-31T23:38:32.890Z,21.90
2022-12-31T23:41:00.601Z,21.80
2022-12-31T23:43:28.272Z,21.80
2022-12-31T23:45:56.010Z,21.80
2022-12-31T23:48:23.695Z,21.80
2022-12-31T23:50:54.000Z,21.80
2022-12-31T23:53:23.779Z,21.80
2022-12-31T23:55:51.908Z,21.90
2022-12-31T23:58:19.656Z,21.90
